Time;durP1;ratioP1;P1;durP2;ratioP2;P2;SDS_P1;SDS_P2;PMS_P1;PMS_P2;Temp;Humidity;BMP_temperature;BMP_pressure;BME280_temperature;BME280_humidity;BME280_pressure;Samples;Min_cycle;Max_cycle;Signal;HPM_P1;HPM_P2
2020/12/27 00:00:10;;;;;;;3.22;2.42;;;7.60;82.10;;;;;;5035702;28;20040;-76
2020/12/27 00:02:36;;;;;;;2.63;2.20;;;7.70;82.20;;;;;;5036493;28;20175;-77
2020/12/27 00:05:04;;;;;;;3.20;2.60;;;7.60;82.10;;;;;;5051804;28;20501;-76
2020/12/27 00:07:30;;;;;;;3.10;2.45;;;7.70;82.20;;;;;;5049589;28;20037;-76
2020/12/27 00:09:55;;;;;;;3.67;2.38;;;7.60;82.10;;;;;;5045009;28;20037;-76
2020/12/27 00:12:21;;;;;;;3.08;2.30;;;7.60;82.10;;;;;;5035608;28;20049;-76
2020/12/27 00:14:47;;;;;;;3.00;2.47;;;7.70;82.10;;;;;;5034833;28;20030;-77
2020/12/27 00:17:13;;;;;;;3.20;2.28;;;7.70;82.10;;;;;;5029277;28;20536;-76
2020/12/27 00:19:39;;;;;;;3.15;2.35;;;7.70;82.10;;;;;;5040475;28;20025;-76
2020/12/27 00:22:05;;;;;;;2.60;2.10;;;7.60;82.10;;;;;;5035423;28;20033;-76
2020/12/27 00:24:31;;;;;;;2.55;2.10;;;7.70;82.10;;;;;;5025020;28;20501;-76
2020/12/27 00:26:58;;;;;;;2.28;2.08;;;7.70;82.20;;;;;;5037987;28;20033;-76
2020/12/27 00:29:23;;;;;;;2.85;2.15;;;7.70;82.10;;;;;;5049421;28;20550;-76
2020/12/27 00:31:50;;;;;;;2.90;2.30;;;7.70;82.10;;;;;;5043716;28;20104;-76
2020/12/27 00:34:17;;;;;;;2.67;2.08;;;7.70;82.10;;;;;;5028372;28;20180;-77
2020/12/27 00:36:43;;;;;;;2.60;2.08;;;7.70;82.10;;;;;;5020856;28;20541;-76
2020/12/27 00:39:09;;;;;;;2.30;2.10;;;7.70;82.10;;;;;;5062767;28;20136;-76
2020/12/27 00:41:35;;;;;;;3.20;2.20;;;7.70;82.10;;;;;;5042672;28;20043;-76
2020/12/27 00:44:02;;;;;;;2.22;2.03;;;7.60;82.00;;;;;;5041775;28;20538;-76
2020/12/27 00:46:28;;;;;;;3.17;2.58;;;7.70;82.10;;;;;;5030792;28;20075;-76
2020/12/27 00:48:54;;;;;;;2.20;2.00;;;7.70;82.10;;;;;;5047112;28;20160;-76
2020/12/27 00:51:24;;;;;;;2.30;2.10;;;7.70;82.10;;;;;;5017060;28;20533;-77
2020/12/27 00:53:50;;;;;;;2.20;2.00;;;7.70;82.10;;;;;;5040466;28;20025;-78
2020/12/27 00:56:16;;;;;;;2.45;2.10;;;7.70;82.10;;;;;;5033870;28;20040;-77
2020/12/27 00:58:54;;;;;;;3.53;2.33;;;7.70;82.10;;;;;;5035504;28;20112;-77
2020/12/27 01:01:20;;;;;;;2.10;1.73;;;7.70;82.10;;;;;;5028524;28;20459;-76
2020/12/27 01:03:46;;;;;;;2.85;1.80;;;7.70;82.10;;;;;;5020156;28;20033;-77
2020/12/27 01:06:22;;;;;;;2.17;1.90;;;7.70;82.10;;;;;;5033963;28;20472;-75
2020/12/27 01:08:49;;;;;;;1.92;1.80;;;7.60;82.10;;;;;;5035537;28;20036;-76
2020/12/27 01:11:15;;;;;;;3.10;2.42;;;7.70;82.10;;;;;;5048000;28;20030;-76
2020/12/27 01:13:41;;;;;;;2.10;1.90;;;7.60;82.00;;;;;;5035070;28;20036;-76
2020/12/27 01:16:11;;;;;;;2.10;1.90;;;7.60;82.10;;;;;;5034333;28;20033;-76
2020/12/27 01:18:42;;;;;;;2.15;1.90;;;7.60;82.10;;;;;;5034847;28;20060;-77
2020/12/27 01:21:08;;;;;;;3.10;2.20;;;7.70;82.10;;;;;;5016500;28;20471;-76
2020/12/27 01:23:34;;;;;;;2.53;2.00;;;7.60;82.10;;;;;;5030551;28;20026;-76
2020/12/27 01:26:00;;;;;;;2.78;2.10;;;7.70;82.10;;;;;;5034658;28;20466;-78
2020/12/27 01:28:26;;;;;;;2.30;1.98;;;7.70;82.10;;;;;;5034817;28;20033;-76
2020/12/27 01:31:00;;;;;;;2.40;2.00;;;7.70;82.10;;;;;;5048824;28;20029;-77
2020/12/27 01:33:34;;;;;;;2.63;2.10;;;7.70;82.10;;;;;;5036196;28;20029;-76
2020/12/27 01:36:00;;;;;;;1.67;1.58;;;7.60;82.00;;;;;;5028732;28;20044;-75
2020/12/27 01:38:27;;;;;;;2.13;1.92;;;7.70;82.10;;;;;;5032695;28;20466;-76
2020/12/27 01:41:00;;;;;;;2.70;2.20;;;7.60;82.00;;;;;;5024725;28;20046;-77
2020/12/27 01:43:27;;;;;;;2.78;2.00;;;7.60;82.10;;;;;;5047520;28;20025;-76
2020/12/27 01:45:55;;;;;;;2.50;1.95;;;7.70;82.10;;;;;;5031279;28;20489;-76
2020/12/27 01:48:22;;;;;;;2.92;2.17;;;7.60;82.00;;;;;;5048899;28;20102;-76
2020/12/27 01:50:54;;;;;;;2.63;1.95;;;7.70;82.10;;;;;;5018626;28;20386;-79
2020/12/27 01:53:40;;;;;;;2.30;2.00;;;7.60;82.00;;;;;;5015807;28;20036;-76
2020/12/27 01:56:13;;;;;;;2.10;1.90;;;7.60;82.00;;;;;;5035236;28;20441;-76
2020/12/27 01:58:46;;;;;;;2.03;1.77;;;7.70;82.00;;;;;;5034492;28;20029;-76
2020/12/27 02:01:18;;;;;;;2.88;2.35;;;7.70;82.10;;;;;;5036219;28;20163;-78
2020/12/27 02:03:53;;;;;;;2.33;2.00;;;7.70;82.00;;;;;;5032230;28;20056;-77
2020/12/27 02:06:33;;;;;;;3.53;2.20;;;7.70;82.00;;;;;;5033820;28;20029;-76
2020/12/27 02:09:08;;;;;;;3.10;2.13;;;7.60;81.90;;;;;;5032352;28;20484;-76
2020/12/27 02:11:40;;;;;;;1.95;1.75;;;7.60;81.90;;;;;;5034462;28;20064;-77
2020/12/27 02:14:06;;;;;;;3.00;2.20;;;7.60;81.90;;;;;;5030765;28;20466;-76
2020/12/27 02:16:35;;;;;;;2.72;2.10;;;7.60;82.00;;;;;;5030168;28;20107;-76
2020/12/27 02:19:26;;;;;;;2.47;2.08;;;7.60;82.00;;;;;;5049349;28;20037;-77
2020/12/27 02:21:57;;;;;;;3.05;2.38;;;7.60;81.90;;;;;;5023746;28;20025;-79
2020/12/27 02:24:49;;;;;;;2.72;2.00;;;7.60;82.00;;;;;;5047734;28;20041;-76
2020/12/27 02:27:18;;;;;;;2.53;2.15;;;7.60;81.90;;;;;;5033914;28;20032;-76
2020/12/27 02:29:44;;;;;;;2.70;2.17;;;7.60;82.00;;;;;;4997545;28;20026;-77
2020/12/27 02:32:11;;;;;;;2.30;2.08;;;7.60;82.00;;;;;;5017654;28;20029;-76
2020/12/27 02:34:37;;;;;;;2.63;2.20;;;7.60;82.00;;;;;;5014297;28;20656;-76
2020/12/27 02:37:04;;;;;;;2.75;2.13;;;7.60;82.00;;;;;;5048903;28;20665;-76
2020/12/27 02:39:55;;;;;;;2.72;2.30;;;7.60;82.00;;;;;;5047641;28;20052;-77
2020/12/27 02:42:23;;;;;;;2.75;2.30;;;7.60;82.00;;;;;;5005849;28;20041;-76
2020/12/27 02:45:10;;;;;;;3.05;2.47;;;7.60;82.00;;;;;;5026251;28;20036;-77
2020/12/27 02:47:54;;;;;;;2.95;2.00;;;7.60;82.00;;;;;;5049993;28;20594;-76
2020/12/27 02:50:34;;;;;;;2.60;2.00;;;7.60;81.90;;;;;;5038731;28;20025;-76
2020/12/27 02:53:01;;;;;;;3.08;2.30;;;7.60;82.00;;;;;;5023966;28;20033;-78
2020/12/27 02:55:26;;;;;;;2.58;2.05;;;7.60;82.00;;;;;;5037454;28;20033;-76
2020/12/27 02:57:54;;;;;;;3.70;2.40;;;7.60;82.00;;;;;;5033799;28;20033;-76
2020/12/27 03:00:22;;;;;;;3.42;2.40;;;7.60;82.00;;;;;;5046258;28;20029;-76
2020/12/27 03:03:11;;;;;;;3.03;2.33;;;7.60;82.00;;;;;;5038063;28;20041;-77
2020/12/27 03:05:42;;;;;;;3.15;2.30;;;7.60;82.00;;;;;;5025189;28;20046;-75
2020/12/27 03:08:08;;;;;;;3.03;2.10;;;7.60;81.90;;;;;;5012310;28;20021;-76
2020/12/27 03:10:53;;;;;;;;;;;7.60;82.00;;;;;;5011644;28;20115;-76
2020/12/27 03:13:19;;;;;;;2.90;2.40;;;7.60;81.90;;;;;;5024855;28;20325;-76
2020/12/27 03:15:45;;;;;;;3.25;2.10;;;7.60;81.70;;;;;;5016776;28;20099;-75
2020/12/27 03:18:32;;;;;;;2.78;2.15;;;7.60;81.80;;;;;;5030502;28;20568;-79
2020/12/27 03:21:30;;;;;;;3.45;2.50;;;7.60;81.90;;;;;;5043644;28;20033;-77
2020/12/27 03:23:55;;;;;;;2.30;2.05;;;7.60;81.90;;;;;;5029885;28;20409;-77
2020/12/27 03:26:28;;;;;;;2.97;2.42;;;7.50;81.90;;;;;;5021515;28;20025;-77
2020/12/27 03:28:54;;;;;;;2.80;2.10;;;7.60;82.00;;;;;;5013478;28;20053;-77
2020/12/27 03:31:20;;;;;;;3.15;2.35;;;7.60;82.00;;;;;;5037299;28;20067;-78
2020/12/27 03:33:47;;;;;;;2.83;2.17;;;7.50;82.00;;;;;;5030591;28;20041;-78
2020/12/27 03:36:16;;;;;;;2.83;2.10;;;7.50;82.00;;;;;;5042891;28;20501;-77
2020/12/27 03:38:51;;;;;;;2.75;2.17;;;7.50;82.00;;;;;;5031052;28;20037;-76
2020/12/27 03:41:37;;;;;;;2.80;2.22;;;7.50;82.00;;;;;;5034585;28;20048;-77
2020/12/27 03:44:14;;;;;;;2.85;2.03;;;7.50;81.90;;;;;;5035537;28;20029;-77
2020/12/27 03:47:03;;;;;;;2.60;2.08;;;7.50;81.90;;;;;;5043651;28;20489;-76
2020/12/27 03:49:48;;;;;;;3.15;2.30;;;7.50;81.90;;;;;;5048453;28;20033;-76
2020/12/27 03:52:22;;;;;;;2.87;2.33;;;7.60;82.00;;;;;;5013844;28;20037;-76
2020/12/27 03:55:12;;;;;;;2.63;1.92;;;7.50;81.90;;;;;;5027043;28;20033;-77
2020/12/27 03:57:56;;;;;;;2.97;2.13;;;7.60;81.90;;;;;;5029715;28;20061;-77
2020/12/27 04:00:32;;;;;;;3.30;2.10;;;7.50;81.90;;;;;;5029495;28;20066;-78
2020/12/27 04:03:07;;;;;;;2.63;1.92;;;7.60;81.90;;;;;;5032459;28;20079;-81
2020/12/27 04:05:37;;;;;;;2.72;1.98;;;7.50;81.90;;;;;;5031683;28;20017;-77
2020/12/27 04:08:03;;;;;;;4.05;2.30;;;7.50;81.90;;;;;;5049150;28;20029;-77
2020/12/27 04:10:29;;;;;;;4.15;2.10;;;7.50;82.00;;;;;;5015074;28;20036;-78
2020/12/27 04:12:55;;;;;;;2.63;2.05;;;7.50;82.00;;;;;;5029316;28;20072;-77
2020/12/27 04:15:20;;;;;;;3.40;2.35;;;7.50;82.00;;;;;;5012747;28;20030;-77
2020/12/27 04:18:06;;;;;;;2.85;2.10;;;7.50;82.00;;;;;;5017578;28;20037;-76
2020/12/27 04:20:52;;;;;;;2.88;2.25;;;7.50;81.90;;;;;;5028626;28;20033;-77
2020/12/27 04:23:18;;;;;;;3.10;2.20;;;7.50;81.90;;;;;;5029406;28;20026;-78
2020/12/27 04:25:44;;;;;;;2.42;1.92;;;7.60;82.00;;;;;;5031264;28;20037;-77
2020/12/27 04:28:10;;;;;;;3.30;2.05;;;7.50;81.90;;;;;;5036859;28;20033;-79
2020/12/27 04:30:35;;;;;;;3.63;2.40;;;7.60;82.00;;;;;;5041860;28;20037;-77
2020/12/27 04:33:19;;;;;;;2.22;1.90;;;7.50;81.90;;;;;;5019860;28;20454;-77
2020/12/27 04:36:04;;;;;;;2.73;2.10;;;7.50;81.90;;;;;;5032999;28;20037;-76
2020/12/27 04:38:30;;;;;;;3.17;2.20;;;7.50;81.90;;;;;;5015719;28;20144;-77
2020/12/27 04:40:56;;;;;;;2.50;2.05;;;7.50;81.90;;;;;;5048454;28;20195;-77
2020/12/27 04:43:23;;;;;;;3.03;2.20;;;7.50;81.90;;;;;;5024109;28;20022;-77
2020/12/27 04:46:02;;;;;;;2.38;1.90;;;7.50;82.00;;;;;;5049988;28;20021;-78
2020/12/27 04:48:43;;;;;;;2.65;2.28;;;7.50;82.00;;;;;;5032968;28;20034;-77
2020/12/27 04:51:24;;;;;;;2.03;1.80;;;7.50;82.00;;;;;;5047301;28;20031;-78
2020/12/27 04:54:00;;;;;;;2.45;1.83;;;7.50;82.00;;;;;;5027619;28;20052;-77
2020/12/27 04:56:42;;;;;;;2.60;2.00;;;7.50;82.00;;;;;;5044809;28;20175;-77
2020/12/27 04:59:16;;;;;;;;;;;7.50;82.00;;;;;;5031354;28;20055;-76
2020/12/27 05:01:44;;;;;;;1.98;1.60;;;7.50;82.10;;;;;;5036781;28;20369;-77
2020/12/27 05:04:21;;;;;;;2.42;1.80;;;7.50;81.80;;;;;;5043997;28;20036;-76
2020/12/27 05:06:58;;;;;;;2.85;1.70;;;7.50;81.90;;;;;;5036232;28;20067;-76
2020/12/27 05:09:35;;;;;;;2.00;1.80;;;7.50;81.90;;;;;;5047473;28;20032;-77
2020/12/27 05:12:01;;;;;;;2.83;1.75;;;7.50;82.00;;;;;;5032021;28;20374;-80
2020/12/27 05:14:28;;;;;;;1.88;1.67;;;7.50;82.00;;;;;;5005196;28;20098;-78
2020/12/27 05:16:58;;;;;;;2.00;1.80;;;7.50;82.00;;;;;;5032842;28;20045;-80
2020/12/27 05:19:35;;;;;;;2.20;1.90;;;7.50;82.00;;;;;;5033701;28;20115;-77
2020/12/27 05:22:09;;;;;;;1.90;1.65;;;7.50;82.00;;;;;;5033456;28;20586;-77
2020/12/27 05:24:51;;;;;;;1.95;1.75;;;7.50;82.00;;;;;;5025247;28;20025;-77
2020/12/27 05:27:54;;;;;;;1.77;1.50;;;7.50;81.90;;;;;;5033125;28;20025;-77
2020/12/27 05:30:31;;;;;;;1.60;1.50;;;7.50;81.90;;;;;;5044842;28;20021;-77
2020/12/27 05:33:17;;;;;;;1.70;1.60;;;7.50;81.90;;;;;;5039202;28;20393;-81
2020/12/27 05:36:03;;;;;;;2.22;1.63;;;7.50;81.90;;;;;;5014663;28;20233;-78
2020/12/27 05:38:35;;;;;;;1.50;1.30;;;7.50;81.90;;;;;;5029011;28;20452;-77
2020/12/27 05:41:29;;;;;;;2.25;1.70;;;7.50;82.00;;;;;;5027062;28;20071;-79
2020/12/27 05:44:07;;;;;;;1.55;1.45;;;7.50;82.00;;;;;;5043701;28;20112;-77
2020/12/27 05:46:34;;;;;;;1.45;1.35;;;7.50;81.90;;;;;;5041862;28;20148;-78
2020/12/27 05:49:01;;;;;;;1.52;1.42;;;7.50;81.90;;;;;;5025075;28;20038;-76
2020/12/27 05:51:30;;;;;;;1.63;1.52;;;7.50;81.90;;;;;;5029943;28;20457;-76
2020/12/27 05:54:02;;;;;;;2.00;1.40;;;7.50;81.90;;;;;;5030353;28;20378;-77
2020/12/27 05:56:55;;;;;;;1.67;1.58;;;7.50;81.90;;;;;;5044523;28;20074;-77
2020/12/27 05:59:29;;;;;;;1.45;1.33;;;7.50;82.00;;;;;;5017592;28;20033;-77
2020/12/27 06:01:58;;;;;;;1.45;1.35;;;7.50;82.00;;;;;;5044789;28;20470;-78
2020/12/27 06:04:57;;;;;;;1.50;1.40;;;7.50;81.90;;;;;;5039088;28;20108;-77
2020/12/27 06:07:44;;;;;;;1.50;1.40;;;7.50;82.00;;;;;;5043601;28;20060;-77
2020/12/27 06:10:20;;;;;;;1.30;1.20;;;7.50;82.00;;;;;;5032419;28;20533;-76
2020/12/27 06:13:27;;;;;;;1.55;1.45;;;7.50;81.90;;;;;;5031755;28;20111;-78
2020/12/27 06:16:50;;;;;;;1.40;1.30;;;7.50;81.90;;;;;;5023983;28;20440;-77
2020/12/27 06:19:57;;;;;;;1.30;1.20;;;7.50;81.90;;;;;;5012269;28;20103;-77
2020/12/27 06:22:26;;;;;;;1.40;1.30;;;7.50;81.90;;;;;;5046113;28;20029;-77
2020/12/27 06:25:10;;;;;;;1.08;1.08;;;7.50;81.80;;;;;;5029097;28;20037;-76
2020/12/27 06:27:38;;;;;;;1.33;1.25;;;7.50;81.90;;;;;;5027663;28;20041;-76
2020/12/27 06:30:06;;;;;;;1.30;1.20;;;7.50;82.00;;;;;;5046425;28;20045;-78
2020/12/27 06:32:48;;;;;;;1.10;1.10;;;7.50;82.00;;;;;;5021076;28;20040;-79
2020/12/27 06:35:13;;;;;;;1.10;1.10;;;7.50;82.00;;;;;;5030361;28;20521;-76
2020/12/27 06:37:43;;;;;;;1.08;1.05;;;7.50;82.00;;;;;;5027102;28;20063;-77
2020/12/27 06:40:25;;;;;;;1.30;1.20;;;7.50;82.00;;;;;;5041158;28;20497;-77
2020/12/27 06:43:24;;;;;;;1.10;1.10;;;7.50;82.00;;;;;;5037090;28;20033;-79
2020/12/27 06:46:26;;;;;;;1.30;1.20;;;7.50;81.90;;;;;;5060150;28;20025;-76
2020/12/27 06:49:15;;;;;;;1.20;1.20;;;7.50;82.00;;;;;;5058722;28;20060;-77
2020/12/27 06:51:56;;;;;;;1.25;1.08;;;7.50;81.90;;;;;;5052492;28;20393;-77
2020/12/27 06:54:43;;;;;;;1.10;1.10;;;7.50;81.90;;;;;;5029210;28;20549;-78
2020/12/27 06:57:45;;;;;;;1.10;1.10;;;7.50;82.00;;;;;;5042557;28;20481;-76
2020/12/27 07:00:20;;;;;;;1.00;1.00;;;7.50;82.10;;;;;;5038948;28;20028;-77
2020/12/27 07:02:48;;;;;;;1.15;1.00;;;7.60;82.00;;;;;;5034241;28;20037;-75
2020/12/27 07:05:31;;;;;;;1.10;1.10;;;7.50;82.00;;;;;;5032047;28;20076;-76
2020/12/27 07:07:57;;;;;;;1.00;1.00;;;7.50;82.10;;;;;;5045302;28;20476;-76
2020/12/27 07:10:25;;;;;;;1.10;1.10;;;7.50;82.00;;;;;;5038316;28;20029;-76
2020/12/27 07:12:51;;;;;;;1.00;1.00;;;7.50;82.00;;;;;;5041517;28;20029;-76
2020/12/27 07:15:18;;;;;;;1.58;1.20;;;7.50;82.00;;;;;;5043044;28;20540;-77
2020/12/27 07:17:48;;;;;;;1.10;1.10;;;7.50;82.10;;;;;;5046249;28;20033;-75
2020/12/27 07:20:15;;;;;;;1.48;1.00;;;7.50;82.10;;;;;;5039484;28;20049;-75
2020/12/27 07:22:43;;;;;;;1.00;1.00;;;7.50;82.00;;;;;;5031839;28;20120;-76
2020/12/27 07:25:13;;;;;;;1.20;1.10;;;7.50;82.00;;;;;;5029576;28;20116;-76
2020/12/27 07:27:43;;;;;;;1.00;1.00;;;7.50;82.00;;;;;;5030272;28;20034;-77
2020/12/27 07:30:10;;;;;;;1.73;1.08;;;7.50;82.10;;;;;;5032149;28;20033;-76
2020/12/27 07:32:48;;;;;;;1.13;1.02;;;7.60;82.10;;;;;;5030418;28;20037;-76
2020/12/27 07:35:14;;;;;;;1.10;1.10;;;7.60;82.10;;;;;;5030821;28;20433;-75
2020/12/27 07:37:43;;;;;;;0.90;0.90;;;7.50;82.00;;;;;;5041859;28;20041;-75
2020/12/27 07:40:12;;;;;;;0.85;0.85;;;7.50;82.10;;;;;;5043223;28;20056;-76
2020/12/27 07:42:39;;;;;;;0.90;0.90;;;7.50;82.10;;;;;;5022486;28;20533;-76
2020/12/27 07:45:12;;;;;;;1.10;1.00;;;7.50;82.00;;;;;;5027344;28;20029;-76
2020/12/27 07:47:41;;;;;;;0.90;0.90;;;7.50;82.10;;;;;;5054898;28;20545;-76
2020/12/27 07:50:15;;;;;;;0.90;0.90;;;7.50;82.00;;;;;;5017297;28;20021;-76
2020/12/27 07:52:58;;;;;;;1.05;1.05;;;7.60;82.20;;;;;;5037398;28;20036;-76
2020/12/27 07:55:24;;;;;;;1.10;1.00;;;7.50;82.10;;;;;;5038358;28;20017;-76
2020/12/27 07:57:50;;;;;;;1.00;1.00;;;7.50;82.10;;;;;;5026856;28;20087;-77
2020/12/27 08:00:21;;;;;;;0.90;0.90;;;7.50;82.10;;;;;;5039857;28;20032;-78
2020/12/27 08:02:48;;;;;;;1.08;1.08;;;7.60;82.10;;;;;;5021699;28;20062;-76
2020/12/27 08:05:14;;;;;;;0.90;0.90;;;7.60;82.10;;;;;;5038385;28;20025;-77
2020/12/27 08:07:40;;;;;;;0.90;0.90;;;7.60;82.10;;;;;;5039159;28;20041;-76
2020/12/27 08:10:24;;;;;;;0.90;0.90;;;7.50;82.00;;;;;;5039620;28;20064;-76
2020/12/27 08:12:55;;;;;;;0.90;0.90;;;7.50;82.20;;;;;;5041589;28;20548;-76
2020/12/27 08:15:22;;;;;;;0.90;0.90;;;7.60;82.10;;;;;;5049317;28;20074;-76
2020/12/27 08:18:02;;;;;;;1.00;1.00;;;7.60;82.00;;;;;;5044805;28;20396;-76
2020/12/27 08:20:32;;;;;;;1.00;1.00;;;7.60;82.10;;;;;;5042844;28;20024;-78
2020/12/27 08:23:03;;;;;;;0.82;0.82;;;7.60;82.10;;;;;;5030573;28;20074;-76
2020/12/27 08:25:29;;;;;;;0.80;0.80;;;7.60;82.10;;;;;;5065077;28;20474;-75
2020/12/27 08:27:57;;;;;;;1.00;1.00;;;7.60;82.10;;;;;;5039419;28;20033;-76
2020/12/27 08:30:24;;;;;;;1.00;1.00;;;7.60;82.10;;;;;;5047100;28;20362;-76
2020/12/27 08:33:02;;;;;;;1.10;1.10;;;7.60;82.10;;;;;;5035522;28;20029;-76
2020/12/27 08:35:28;;;;;;;0.88;0.88;;;7.60;82.10;;;;;;5032798;28;20020;-79
2020/12/27 08:38:06;;;;;;;1.10;1.10;;;7.60;82.10;;;;;;5046854;28;20397;-79
2020/12/27 08:40:36;;;;;;;0.90;0.90;;;7.60;82.10;;;;;;5038195;28;20038;-77
2020/12/27 08:43:08;;;;;;;0.93;0.93;;;7.60;82.10;;;;;;5063810;28;20029;-77
2020/12/27 08:45:38;;;;;;;1.00;1.00;;;7.60;82.70;;;;;;5046940;28;20025;-78
2020/12/27 08:48:25;;;;;;;1.00;1.00;;;7.60;82.10;;;;;;5046847;28;20230;-78
2020/12/27 08:50:55;;;;;;;0.90;0.90;;;7.60;82.20;;;;;;5034190;28;20036;-79
2020/12/27 08:53:21;;;;;;;1.20;1.20;;;7.60;82.10;;;;;;5049626;28;20124;-77
2020/12/27 08:55:47;;;;;;;0.90;0.90;;;7.60;82.00;;;;;;5031559;28;20040;-76
2020/12/27 08:58:13;;;;;;;1.05;1.00;;;7.70;82.10;;;;;;5028779;28;20485;-77
2020/12/27 09:00:39;;;;;;;0.90;0.90;;;7.60;82.10;;;;;;5040386;28;20071;-77
2020/12/27 09:03:05;;;;;;;1.08;1.08;;;7.60;82.10;;;;;;5040180;28;20033;-81
2020/12/27 09:05:34;;;;;;;1.00;1.00;;;7.60;82.10;;;;;;5019448;28;20033;-78
2020/12/27 09:08:00;;;;;;;0.90;0.90;;;7.70;82.10;;;;;;5031772;28;20061;-78
2020/12/27 09:10:27;;;;;;;1.00;1.00;;;7.60;82.10;;;;;;5031309;28;20017;-77
2020/12/27 09:12:56;;;;;;;1.00;1.00;;;7.70;82.10;;;;;;5043243;28;20060;-78
2020/12/27 09:15:26;;;;;;;1.00;1.00;;;7.70;82.10;;;;;;5036472;28;20033;-78
2020/12/27 09:18:28;;;;;;;0.90;0.90;;;7.70;82.10;;;;;;5060446;28;20131;-79
2020/12/27 09:21:02;;;;;;;0.98;0.98;;;7.70;82.30;;;;;;5050144;28;20025;-77
2020/12/27 09:23:28;;;;;;;0.80;0.80;;;7.70;82.10;;;;;;5042654;28;20025;-75
2020/12/27 09:26:09;;;;;;;1.00;1.00;;;7.70;82.10;;;;;;5038677;28;20640;-76
2020/12/27 09:28:39;;;;;;;0.93;0.93;;;7.70;82.20;;;;;;5040872;28;20021;-75
2020/12/27 09:31:10;;;;;;;1.00;1.00;;;7.70;82.10;;;;;;5048350;28;20025;-75
2020/12/27 09:33:43;;;;;;;0.90;0.90;;;7.70;82.10;;;;;;5037855;28;20108;-74
2020/12/27 09:36:10;;;;;;;0.80;0.80;;;7.70;82.10;;;;;;5042242;28;20030;-75
2020/12/27 09:38:42;;;;;;;0.90;0.90;;;7.70;82.00;;;;;;5045289;28;20033;-75
2020/12/27 09:41:15;;;;;;;0.90;0.90;;;7.70;82.10;;;;;;5038996;28;20363;-74
2020/12/27 09:43:54;;;;;;;0.90;0.90;;;7.80;82.10;;;;;;5043473;28;20033;-75
2020/12/27 09:46:39;;;;;;;0.98;0.98;;;7.80;82.10;;;;;;5041837;28;20130;-74
2020/12/27 09:49:24;;;;;;;1.00;1.00;;;7.70;82.10;;;;;;5046603;28;20473;-75
2020/12/27 09:52:07;;;;;;;1.10;1.00;;;7.80;82.10;;;;;;5040690;28;20025;-78
2020/12/27 09:54:37;;;;;;;0.95;0.95;;;7.80;82.10;;;;;;5044465;28;20033;-76
2020/12/27 09:57:19;;;;;;;0.90;0.90;;;7.80;82.00;;;;;;5036661;28;20033;-76
2020/12/27 09:59:50;;;;;;;0.90;0.90;;;7.80;82.10;;;;;;5039620;28;20052;-77
2020/12/27 10:02:17;;;;;;;1.00;1.00;;;7.80;82.00;;;;;;5037559;28;20029;-77
2020/12/27 10:04:43;;;;;;;0.90;0.90;;;7.80;82.10;;;;;;5037052;28;20022;-75
2020/12/27 10:07:09;;;;;;;1.10;1.10;;;7.80;82.10;;;;;;5047580;28;20493;-77
2020/12/27 10:09:35;;;;;;;1.00;1.00;;;7.80;82.10;;;;;;5043653;28;20100;-77
2020/12/27 10:12:01;;;;;;;0.90;0.90;;;7.80;82.10;;;;;;5040300;28;20053;-76
2020/12/27 10:14:27;;;;;;;1.00;1.00;;;7.80;82.10;;;;;;5019920;28;20064;-78
2020/12/27 10:16:56;;;;;;;0.90;0.90;;;7.80;82.10;;;;;;5040591;28;20041;-77
2020/12/27 10:19:22;;;;;;;1.15;1.13;;;7.80;82.10;;;;;;5046716;28;20025;-77
2020/12/27 10:21:48;;;;;;;0.90;0.90;;;7.80;82.00;;;;;;5040446;28;20037;-77
2020/12/27 10:24:15;;;;;;;1.30;1.00;;;7.90;82.10;;;;;;5042350;28;20028;-77
2020/12/27 10:26:42;;;;;;;0.90;0.90;;;7.80;82.00;;;;;;5043400;28;20029;-78
2020/12/27 10:29:07;;;;;;;0.80;0.80;;;7.80;82.00;;;;;;5040699;28;20055;-79
2020/12/27 10:31:33;;;;;;;1.00;1.00;;;7.80;82.00;;;;;;5042282;28;20411;-77
2020/12/27 10:33:59;;;;;;;0.90;0.90;;;7.90;82.10;;;;;;5035001;28;20373;-78
2020/12/27 10:36:26;;;;;;;0.90;0.90;;;7.90;82.10;;;;;;5040246;28;20528;-78
2020/12/27 10:38:52;;;;;;;0.90;0.90;;;7.90;82.10;;;;;;5037630;28;20065;-78
2020/12/27 10:41:17;;;;;;;1.00;1.00;;;7.90;82.10;;;;;;5024173;28;20057;-79
2020/12/27 10:43:49;;;;;;;1.08;0.98;;;7.90;82.00;;;;;;5039421;28;20376;-80
2020/12/27 10:46:16;;;;;;;0.90;0.90;;;7.90;82.20;;;;;;5039778;28;20053;-78
2020/12/27 10:48:42;;;;;;;0.90;0.90;;;7.90;82.10;;;;;;5027250;28;20040;-77
2020/12/27 10:51:08;;;;;;;1.00;0.90;;;7.90;82.10;;;;;;5043127;28;20032;-77
2020/12/27 10:53:34;;;;;;;0.82;0.82;;;7.90;82.10;;;;;;5029949;28;20132;-77
2020/12/27 10:56:00;;;;;;;1.00;0.93;;;7.90;82.00;;;;;;5041849;28;20086;-77
2020/12/27 10:58:25;;;;;;;0.82;0.82;;;7.90;82.00;;;;;;5044278;28;20029;-77
2020/12/27 11:00:51;;;;;;;0.90;0.90;;;7.90;82.00;;;;;;5040310;28;20075;-76
2020/12/27 11:03:17;;;;;;;1.02;1.02;;;7.90;82.00;;;;;;5028900;28;20025;-76
2020/12/27 11:05:42;;;;;;;0.90;0.90;;;8.00;82.10;;;;;;5040555;28;20116;-76
2020/12/27 11:08:08;;;;;;;0.98;0.98;;;8.00;82.10;;;;;;5038620;28;20033;-76
2020/12/27 11:10:34;;;;;;;0.80;0.80;;;8.00;82.10;;;;;;5035487;28;20033;-78
2020/12/27 11:13:00;;;;;;;0.90;0.90;;;7.90;82.00;;;;;;5040815;28;20029;-80
2020/12/27 11:15:26;;;;;;;0.98;0.98;;;8.00;82.10;;;;;;5037530;28;20028;-79
2020/12/27 11:17:52;;;;;;;0.93;0.93;;;8.00;82.10;;;;;;4990121;28;20034;-83
2020/12/27 11:20:18;;;;;;;0.90;0.90;;;8.00;82.10;;;;;;5037469;28;20116;-78
2020/12/27 11:22:43;;;;;;;1.00;1.00;;;8.00;82.10;;;;;;5016422;28;20037;-78
2020/12/27 11:25:10;;;;;;;0.90;0.90;;;8.00;82.10;;;;;;5034659;28;20088;-78
2020/12/27 11:27:36;;;;;;;0.90;0.90;;;8.00;82.10;;;;;;5043348;28;20546;-78
2020/12/27 11:30:04;;;;;;;1.00;1.00;;;8.00;82.10;;;;;;5038777;28;20021;-78
2020/12/27 11:32:30;;;;;;;0.98;0.90;;;8.00;82.10;;;;;;5036558;28;20035;-77
2020/12/27 11:34:55;;;;;;;0.90;0.90;;;8.00;82.10;;;;;;5030677;28;20563;-78
2020/12/27 11:37:21;;;;;;;0.85;0.85;;;8.00;82.10;;;;;;5026379;28;20098;-77
2020/12/27 11:39:47;;;;;;;0.93;0.90;;;8.00;82.10;;;;;;5039540;28;20052;-80
2020/12/27 11:42:13;;;;;;;0.90;0.90;;;8.00;82.10;;;;;;5037646;28;20033;-83
2020/12/27 11:44:39;;;;;;;0.90;0.90;;;8.00;82.00;;;;;;5046734;28;20497;-77
2020/12/27 11:47:05;;;;;;;1.00;1.00;;;8.00;82.00;;;;;;5038733;28;20016;-78
2020/12/27 11:49:32;;;;;;;1.02;1.02;;;8.00;82.10;;;;;;5004905;28;20029;-77
2020/12/27 11:51:58;;;;;;;0.88;0.88;;;8.00;82.00;;;;;;5046102;28;20037;-77
2020/12/27 11:54:23;;;;;;;0.82;0.82;;;8.00;82.00;;;;;;5034526;28;20028;-77
2020/12/27 11:56:53;;;;;;;0.90;0.90;;;8.00;82.00;;;;;;5041675;28;20246;-77
2020/12/27 11:59:19;;;;;;;0.90;0.90;;;8.10;82.00;;;;;;5029491;28;20021;-78
2020/12/27 12:01:47;;;;;;;1.23;1.00;;;8.10;82.00;;;;;;5040118;28;20358;-78
2020/12/27 12:04:13;;;;;;;0.85;0.85;;;8.10;82.00;;;;;;5040197;28;20092;-80
2020/12/27 12:06:39;;;;;;;0.90;0.90;;;8.10;82.00;;;;;;5033633;28;20459;-78
2020/12/27 12:09:05;;;;;;;2.95;1.10;;;8.10;82.00;;;;;;5038600;28;20029;-77
2020/12/27 12:11:34;;;;;;;0.90;0.90;;;8.10;82.00;;;;;;5031080;28;20029;-77
2020/12/27 12:14:00;;;;;;;0.90;0.90;;;8.10;82.10;;;;;;5040294;28;20076;-78
2020/12/27 12:16:27;;;;;;;0.80;0.80;;;8.10;82.00;;;;;;5028202;28;20057;-77
2020/12/27 12:18:53;;;;;;;0.90;0.90;;;8.10;82.00;;;;;;5024907;28;20617;-78
2020/12/27 12:21:19;;;;;;;0.88;0.88;;;8.10;82.00;;;;;;5046205;28;20017;-79
2020/12/27 12:23:45;;;;;;;0.90;0.90;;;8.10;82.00;;;;;;5040683;28;20385;-78
2020/12/27 12:26:16;;;;;;;1.10;1.10;;;8.10;81.90;;;;;;5047199;28;20473;-77
2020/12/27 12:28:42;;;;;;;0.93;0.93;;;8.10;82.00;;;;;;5032086;28;20525;-77
2020/12/27 12:31:11;;;;;;;1.00;1.00;;;8.10;81.90;;;;;;5046534;28;20108;-77
2020/12/27 12:33:37;;;;;;;0.98;0.98;;;8.10;82.00;;;;;;5039539;28;20554;-77
2020/12/27 12:36:03;;;;;;;0.90;0.90;;;8.10;82.00;;;;;;5044582;28;20057;-77
2020/12/27 12:38:28;;;;;;;1.20;1.10;;;8.10;81.90;;;;;;4989288;28;20104;-78
2020/12/27 12:40:54;;;;;;;1.00;1.00;;;8.20;82.00;;;;;;5030352;28;20041;-79
2020/12/27 12:43:20;;;;;;;0.85;0.85;;;8.20;82.00;;;;;;5025800;28;20025;-78
2020/12/27 12:45:46;;;;;;;1.02;0.90;;;8.20;81.90;;;;;;5039670;28;20041;-78
2020/12/27 12:48:11;;;;;;;1.00;1.00;;;8.20;81.90;;;;;;5013251;28;20046;-77
2020/12/27 12:50:37;;;;;;;0.90;0.90;;;8.20;82.00;;;;;;5037189;28;20168;-77
2020/12/27 12:53:03;;;;;;;0.90;0.90;;;8.20;82.00;;;;;;5030973;28;20600;-78
2020/12/27 12:55:28;;;;;;;0.90;0.90;;;8.20;81.90;;;;;;5043097;28;20033;-79
2020/12/27 12:57:54;;;;;;;1.00;1.00;;;8.20;82.00;;;;;;5040792;28;20524;-81
2020/12/27 13:00:20;;;;;;;0.90;0.90;;;8.20;81.90;;;;;;5047430;28;20049;-79
2020/12/27 13:02:45;;;;;;;0.80;0.80;;;8.20;81.90;;;;;;5029865;28;20040;-78
2020/12/27 13:05:11;;;;;;;0.90;0.90;;;8.20;81.90;;;;;;5043012;28;20079;-77
2020/12/27 13:07:38;;;;;;;0.80;0.80;;;8.20;81.90;;;;;;5030126;28;20036;-81
2020/12/27 13:10:04;;;;;;;0.90;0.90;;;8.20;81.90;;;;;;5042501;28;20060;-77
2020/12/27 13:12:30;;;;;;;0.85;0.85;;;8.20;81.90;;;;;;5044501;28;20145;-78
2020/12/27 13:14:56;;;;;;;1.08;1.08;;;8.20;81.90;;;;;;5041515;28;20025;-78
2020/12/27 13:17:22;;;;;;;1.00;1.00;;;8.20;81.90;;;;;;5041500;28;20099;-77
2020/12/27 13:19:47;;;;;;;0.90;0.90;;;8.20;81.90;;;;;;5046000;28;20432;-78